Terminal Aerodrome Forecast
Issued by NWS

Home | Current Version | Previous Version | Text Only | Print | Product List | Glossary On
Versions: 1 2 3 4 5 6 7 8 9 10 11 12 13 14 15 16 17 18 19 20 21 22 23 24 25 26
000
FTUS44 KCRP 211122
TAFLRD
TAF
KLRD 211122Z 2112/2212 14008KT P6SM SKC
      TEMPO 2112/2114 4SM BR SCT001
     FM211700 15016G23KT P6SM SCT025
     FM220100 14012KT P6SM SCT250
     FM220500 15017G22KT P6SM SCT250=

USA.gov is the U.S. government's official web portal to all federal, state and local government web resources and services.